sensor_id;sensor_type;location;lat;lon;timestamp;pressure;altitude;pressure_sealevel;temperature;humidity
4617;BME280;2321;42.704;23.384;2024-03-07T00:02:20;95256.16;;;8.86;100.00
4617;BME280;2321;42.704;23.384;2024-03-07T00:04:48;95251.56;;;8.79;100.00
4617;BME280;2321;42.704;23.384;2024-03-07T00:07:15;95250.75;;;8.79;100.00
4617;BME280;2321;42.704;23.384;2024-03-07T00:09:42;95254.22;;;8.79;100.00
4617;BME280;2321;42.704;23.384;2024-03-07T00:12:08;95249.91;;;8.78;100.00
4617;BME280;2321;42.704;23.384;2024-03-07T00:14:35;95251.13;;;8.76;100.00
4617;BME280;2321;42.704;23.384;2024-03-07T00:17:02;95246.63;;;8.76;100.00
4617;BME280;2321;42.704;23.384;2024-03-07T00:19:30;95243.41;;;8.81;100.00
4617;BME280;2321;42.704;23.384;2024-03-07T00:21:57;95238.09;;;8.81;100.00
4617;BME280;2321;42.704;23.384;2024-03-07T00:24:24;95240.13;;;8.79;100.00
4617;BME280;2321;42.704;23.384;2024-03-07T00:26:52;95238.47;;;8.78;100.00
4617;BME280;2321;42.704;23.384;2024-03-07T00:29:19;95242.53;;;8.74;100.00
4617;BME280;2321;42.704;23.384;2024-03-07T00:31:46;95240.03;;;8.72;100.00
4617;BME280;2321;42.704;23.384;2024-03-07T00:34:13;95232.19;;;8.64;100.00
4617;BME280;2321;42.704;23.384;2024-03-07T00:36:43;95232.19;;;8.64;100.00
4617;BME280;2321;42.704;23.384;2024-03-07T00:39:09;95231.56;;;8.62;100.00
4617;BME280;2321;42.704;23.384;2024-03-07T00:41:37;95228.22;;;8.59;100.00
4617;BME280;2321;42.704;23.384;2024-03-07T00:44:04;95229.69;;;8.62;100.00
4617;BME280;2321;42.704;23.384;2024-03-07T00:46:31;95225.91;;;8.56;100.00
4617;BME280;2321;42.704;23.384;2024-03-07T00:48:58;95226.28;;;8.53;100.00
4617;BME280;2321;42.704;23.384;2024-03-07T00:51:25;95224.19;;;8.48;100.00
4617;BME280;2321;42.704;23.384;2024-03-07T00:53:53;95215.56;;;8.46;100.00
4617;BME280;2321;42.704;23.384;2024-03-07T00:56:20;95227.09;;;8.54;100.00
4617;BME280;2321;42.704;23.384;2024-03-07T00:58:47;95227.47;;;8.50;100.00
4617;BME280;2321;42.704;23.384;2024-03-07T01:01:14;95218.88;;;8.48;100.00
4617;BME280;2321;42.704;23.384;2024-03-07T01:03:41;95214.41;;;8.49;100.00
4617;BME280;2321;42.704;23.384;2024-03-07T01:06:08;95216.59;;;8.45;100.00
4617;BME280;2321;42.704;23.384;2024-03-07T01:08:35;95214.78;;;8.46;100.00
4617;BME280;2321;42.704;23.384;2024-03-07T01:11:04;95204.53;;;8.43;100.00
4617;BME280;2321;42.704;23.384;2024-03-07T01:13:34;95202.69;;;8.43;100.00
4617;BME280;2321;42.704;23.384;2024-03-07T01:16:01;95203.69;;;8.42;100.00
4617;BME280;2321;42.704;23.384;2024-03-07T01:18:28;95202.41;;;8.38;100.00
4617;BME280;2321;42.704;23.384;2024-03-07T01:20:55;95196.09;;;8.39;100.00
4617;BME280;2321;42.704;23.384;2024-03-07T01:23:22;95200.78;;;8.37;100.00
4617;BME280;2321;42.704;23.384;2024-03-07T01:25:49;95192.63;;;8.38;100.00
4617;BME280;2321;42.704;23.384;2024-03-07T01:28:17;95190.22;;;8.44;100.00
4617;BME280;2321;42.704;23.384;2024-03-07T01:30:45;95188.41;;;8.44;100.00
4617;BME280;2321;42.704;23.384;2024-03-07T01:33:12;95189.44;;;8.43;100.00
4617;BME280;2321;42.704;23.384;2024-03-07T01:35:39;95191.06;;;8.44;100.00
4617;BME280;2321;42.704;23.384;2024-03-07T01:38:06;95185.97;;;8.43;100.00
4617;BME280;2321;42.704;23.384;2024-03-07T01:40:36;95189.44;;;8.43;100.00
4617;BME280;2321;42.704;23.384;2024-03-07T01:43:03;95186.59;;;8.45;100.00
4617;BME280;2321;42.704;23.384;2024-03-07T01:45:32;95187.41;;;8.45;100.00
4617;BME280;2321;42.704;23.384;2024-03-07T01:48:04;95185.97;;;8.43;100.00
4617;BME280;2321;42.704;23.384;2024-03-07T01:50:31;95181.66;;;8.42;100.00
4617;BME280;2321;42.704;23.384;2024-03-07T01:52:59;95179.63;;;8.44;100.00
4617;BME280;2321;42.704;23.384;2024-03-07T01:55:27;95172.22;;;8.39;100.00
4617;BME280;2321;42.704;23.384;2024-03-07T01:57:56;95180.34;;;8.37;100.00
4617;BME280;2321;42.704;23.384;2024-03-07T02:00:25;95177.28;;;8.34;100.00
4617;BME280;2321;42.704;23.384;2024-03-07T02:02:55;95182.75;;;8.32;100.00
4617;BME280;2321;42.704;23.384;2024-03-07T02:05:34;95186.50;;;8.23;100.00
4617;BME280;2321;42.704;23.384;2024-03-07T02:08:01;95186.13;;;8.26;100.00
4617;BME280;2321;42.704;23.384;2024-03-07T02:10:28;95193.56;;;8.31;100.00
4617;BME280;2321;42.704;23.384;2024-03-07T02:12:56;95195.38;;;8.30;100.00
4617;BME280;2321;42.704;23.384;2024-03-07T02:15:23;95199.03;;;8.29;100.00
4617;BME280;2321;42.704;23.384;2024-03-07T02:17:50;95202.13;;;8.33;100.00
4617;BME280;2321;42.704;23.384;2024-03-07T02:20:18;95198.84;;;8.31;100.00
4617;BME280;2321;42.704;23.384;2024-03-07T02:22:48;95193.97;;;8.34;100.00
4617;BME280;2321;42.704;23.384;2024-03-07T02:25:16;95197.81;;;8.32;100.00
4617;BME280;2321;42.704;23.384;2024-03-07T02:27:43;95194.53;;;8.30;100.00
4617;BME280;2321;42.704;23.384;2024-03-07T02:30:12;95191.91;;;8.30;100.00
4617;BME280;2321;42.704;23.384;2024-03-07T02:32:40;95181.28;;;8.30;100.00
4617;BME280;2321;42.704;23.384;2024-03-07T02:35:07;95180.28;;;8.31;100.00
4617;BME280;2321;42.704;23.384;2024-03-07T02:37:35;95181.09;;;8.31;100.00
4617;BME280;2321;42.704;23.384;2024-03-07T02:40:04;95170.47;;;8.31;100.00
4617;BME280;2321;42.704;23.384;2024-03-07T02:42:33;95184.56;;;8.32;100.00
4617;BME280;2321;42.704;23.384;2024-03-07T02:45:04;95187.69;;;8.35;100.00
4617;BME280;2321;42.704;23.384;2024-03-07T02:47:32;95188.16;;;8.39;100.00
4617;BME280;2321;42.704;23.384;2024-03-07T02:49:59;95199.38;;;8.41;100.00
4617;BME280;2321;42.704;23.384;2024-03-07T02:52:26;95202.69;;;8.43;100.00
4617;BME280;2321;42.704;23.384;2024-03-07T02:54:53;95202.50;;;8.45;100.00
4617;BME280;2321;42.704;23.384;2024-03-07T02:57:21;95195.84;;;8.49;100.00
4617;BME280;2321;42.704;23.384;2024-03-07T02:59:48;95203.50;;;8.44;100.00
4617;BME280;2321;42.704;23.384;2024-03-07T03:02:16;95205.53;;;8.42;100.00
4617;BME280;2321;42.704;23.384;2024-03-07T03:04:43;95207.25;;;8.34;100.00
4617;BME280;2321;42.704;23.384;2024-03-07T03:07:10;95210.72;;;8.35;100.00
4617;BME280;2321;42.704;23.384;2024-03-07T03:09:37;95215.03;;;8.36;100.00
4617;BME280;2321;42.704;23.384;2024-03-07T03:12:08;95221.69;;;8.32;100.00
4617;BME280;2321;42.704;23.384;2024-03-07T03:14:37;95229.19;;;8.28;100.00
4617;BME280;2321;42.704;23.384;2024-03-07T03:17:05;95216.50;;;8.23;100.00
4617;BME280;2321;42.704;23.384;2024-03-07T03:19:34;95205.41;;;8.20;100.00
4617;BME280;2321;42.704;23.384;2024-03-07T03:22:01;95209.47;;;8.15;100.00
4617;BME280;2321;42.704;23.384;2024-03-07T03:24:29;95213.47;;;8.11;100.00
4617;BME280;2321;42.704;23.384;2024-03-07T03:26:56;95218.31;;;8.07;100.00
4617;BME280;2321;42.704;23.384;2024-03-07T03:29:23;95218.66;;;8.04;100.00
4617;BME280;2321;42.704;23.384;2024-03-07T03:31:51;95218.56;;;7.98;100.00
4617;BME280;2321;42.704;23.384;2024-03-07T03:34:19;95215.09;;;7.97;100.00
4617;BME280;2321;42.704;23.384;2024-03-07T03:36:46;95221.41;;;7.96;100.00
4617;BME280;2321;42.704;23.384;2024-03-07T03:39:13;95223.22;;;7.95;100.00
4617;BME280;2321;42.704;23.384;2024-03-07T03:41:41;95230.69;;;7.92;100.00
4617;BME280;2321;42.704;23.384;2024-03-07T03:44:08;95239.31;;;7.94;100.00
4617;BME280;2321;42.704;23.384;2024-03-07T03:46:35;95247.91;;;7.96;100.00
4617;BME280;2321;42.704;23.384;2024-03-07T03:49:03;95233.66;;;7.97;100.00
4617;BME280;2321;42.704;23.384;2024-03-07T03:51:31;95225.03;;;7.95;100.00
4617;BME280;2321;42.704;23.384;2024-03-07T03:53:58;95223.22;;;7.95;100.00
4617;BME280;2321;42.704;23.384;2024-03-07T03:56:25;95217.06;;;7.80;100.00
4617;BME280;2321;42.704;23.384;2024-03-07T03:58:53;95210.00;;;7.72;100.00
4617;BME280;2321;42.704;23.384;2024-03-07T04:01:20;95203.66;;;7.58;100.00
4617;BME280;2321;42.704;23.384;2024-03-07T04:03:47;95202.41;;;7.45;100.00
4617;BME280;2321;42.704;23.384;2024-03-07T04:06:15;95202.13;;;7.40;100.00
4617;BME280;2321;42.704;23.384;2024-03-07T04:08:42;95202.00;;;7.33;100.00
4617;BME280;2321;42.704;23.384;2024-03-07T04:11:09;95203.91;;;7.24;100.00
4617;BME280;2321;42.704;23.384;2024-03-07T04:13:37;95209.25;;;7.16;100.00
4617;BME280;2321;42.704;23.384;2024-03-07T04:16:04;95205.13;;;7.13;100.00
4617;BME280;2321;42.704;23.384;2024-03-07T04:18:31;95209.47;;;7.06;100.00
4617;BME280;2321;42.704;23.384;2024-03-07T04:20:58;95211.81;;;7.01;100.00
4617;BME280;2321;42.704;23.384;2024-03-07T04:23:27;95214.19;;;6.95;100.00
4617;BME280;2321;42.704;23.384;2024-03-07T04:25:54;95224.78;;;6.87;100.00
4617;BME280;2321;42.704;23.384;2024-03-07T04:28:21;95229.72;;;6.90;100.00
4617;BME280;2321;42.704;23.384;2024-03-07T04:30:49;95226.28;;;6.90;100.00
4617;BME280;2321;42.704;23.384;2024-03-07T04:33:16;95225.81;;;6.86;100.00
4617;BME280;2321;42.704;23.384;2024-03-07T04:35:43;95220.31;;;6.88;100.00
4617;BME280;2321;42.704;23.384;2024-03-07T04:38:10;95220.66;;;6.84;100.00
4617;BME280;2321;42.704;23.384;2024-03-07T04:40:42;95216.91;;;6.79;100.00
4617;BME280;2321;42.704;23.384;2024-03-07T04:43:09;95224.84;;;6.79;100.00
4617;BME280;2321;42.704;23.384;2024-03-07T04:45:37;95215.13;;;6.71;100.00
4617;BME280;2321;42.704;23.384;2024-03-07T04:48:05;95212.00;;;6.67;100.00
4617;BME280;2321;42.704;23.384;2024-03-07T04:50:34;95206.84;;;6.65;100.00
4617;BME280;2321;42.704;23.384;2024-03-07T04:53:01;95212.00;;;6.67;100.00
4617;BME280;2321;42.704;23.384;2024-03-07T04:55:28;95217.78;;;6.62;100.00
4617;BME280;2321;42.704;23.384;2024-03-07T04:57:57;95218.16;;;6.59;100.00
4617;BME280;2321;42.704;23.384;2024-03-07T05:00:24;95234.03;;;6.59;100.00
4617;BME280;2321;42.704;23.384;2024-03-07T05:02:51;95231.53;;;6.58;100.00
4617;BME280;2321;42.704;23.384;2024-03-07T05:05:19;95231.88;;;6.54;100.00
4617;BME280;2321;42.704;23.384;2024-03-07T05:07:51;95233.38;;;6.49;100.00
4617;BME280;2321;42.704;23.384;2024-03-07T05:10:18;95234.72;;;6.45;100.00
4617;BME280;2321;42.704;23.384;2024-03-07T05:12:45;95245.13;;;6.46;100.00
4617;BME280;2321;42.704;23.384;2024-03-07T05:15:14;95246.28;;;6.52;100.00
4617;BME280;2321;42.704;23.384;2024-03-07T05:17:42;95251.72;;;6.50;100.00
4617;BME280;2321;42.704;23.384;2024-03-07T05:20:10;95238.69;;;6.49;100.00
4617;BME280;2321;42.704;23.384;2024-03-07T05:22:38;95232.75;;;6.47;100.00
4617;BME280;2321;42.704;23.384;2024-03-07T05:25:06;95247.44;;;6.49;100.00
4617;BME280;2321;42.704;23.384;2024-03-07T05:27:33;95228.09;;;6.49;100.00
4617;BME280;2321;42.704;23.384;2024-03-07T05:30:02;95239.66;;;6.48;100.00
4617;BME280;2321;42.704;23.384;2024-03-07T05:32:32;95247.94;;;6.53;100.00
4617;BME280;2321;42.704;23.384;2024-03-07T05:34:59;95244.94;;;6.48;100.00
4617;BME280;2321;42.704;23.384;2024-03-07T05:37:27;95246.44;;;6.50;100.00
4617;BME280;2321;42.704;23.384;2024-03-07T05:39:54;95251.22;;;6.55;100.00
4617;BME280;2321;42.704;23.384;2024-03-07T05:42:21;95251.03;;;6.57;100.00
4617;BME280;2321;42.704;23.384;2024-03-07T05:44:50;95251.88;;;6.57;100.00
4617;BME280;2321;42.704;23.384;2024-03-07T05:47:19;95255.66;;;6.63;100.00
4617;BME280;2321;42.704;23.384;2024-03-07T05:49:48;95254.34;;;6.59;100.00
4617;BME280;2321;42.704;23.384;2024-03-07T05:52:16;95253.19;;;6.61;100.00
4617;BME280;2321;42.704;23.384;2024-03-07T05:54:43;95253.00;;;6.63;100.00
4617;BME280;2321;42.704;23.384;2024-03-07T05:57:10;95229.09;;;6.48;100.00
4617;BME280;2321;42.704;23.384;2024-03-07T05:59:38;95257.81;;;6.68;100.00
4617;BME280;2321;42.704;23.384;2024-03-07T06:02:05;95254.97;;;6.69;100.00
4617;BME280;2321;42.704;23.384;2024-03-07T06:04:32;95259.91;;;6.72;100.00
4617;BME280;2321;42.704;23.384;2024-03-07T06:07:01;95268.88;;;6.71;100.00
4617;BME280;2321;42.704;23.384;2024-03-07T06:09:28;95259.63;;;6.67;100.00
4617;BME280;2321;42.704;23.384;2024-03-07T06:11:56;95271.84;;;6.68;100.00
4617;BME280;2321;42.704;23.384;2024-03-07T06:14:23;95273.34;;;6.71;100.00
4617;BME280;2321;42.704;23.384;2024-03-07T06:16:50;95266.03;;;6.73;100.00
4617;BME280;2321;42.704;23.384;2024-03-07T06:19:17;95272.13;;;6.82;100.00
4617;BME280;2321;42.704;23.384;2024-03-07T06:21:44;95276.25;;;6.84;100.00
4617;BME280;2321;42.704;23.384;2024-03-07T06:24:13;95273.94;;;6.81;100.00
4617;BME280;2321;42.704;23.384;2024-03-07T06:26:40;95283.72;;;6.81;100.00
4617;BME280;2321;42.704;23.384;2024-03-07T06:29:25;95291.13;;;6.85;100.00
4617;BME280;2321;42.704;23.384;2024-03-07T06:31:53;95301.19;;;6.90;100.00
4617;BME280;2321;42.704;23.384;2024-03-07T06:34:20;95301.03;;;6.92;100.00
4617;BME280;2321;42.704;23.384;2024-03-07T06:36:47;95310.78;;;6.91;100.00
4617;BME280;2321;42.704;23.384;2024-03-07T06:39:16;95296.88;;;6.97;100.00
4617;BME280;2321;42.704;23.384;2024-03-07T06:41:47;95296.53;;;7.01;100.00
4617;BME280;2321;42.704;23.384;2024-03-07T06:44:14;95273.88;;;6.98;100.00
4617;BME280;2321;42.704;23.384;2024-03-07T06:46:42;95280.13;;;7.05;100.00
4617;BME280;2321;42.704;23.384;2024-03-07T06:49:11;95283.09;;;7.11;100.00
4617;BME280;2321;42.704;23.384;2024-03-07T06:51:38;95277.25;;;7.15;100.00
4617;BME280;2321;42.704;23.384;2024-03-07T06:54:05;95288.34;;;7.19;100.00
4617;BME280;2321;42.704;23.384;2024-03-07T06:56:34;95290.63;;;7.22;100.00
4617;BME280;2321;42.704;23.384;2024-03-07T06:59:02;95290.78;;;7.29;100.00
4617;BME280;2321;42.704;23.384;2024-03-07T07:01:30;95302.22;;;7.29;100.00
4617;BME280;2321;42.704;23.384;2024-03-07T07:03:57;95297.91;;;7.28;100.00
4617;BME280;2321;42.704;23.384;2024-03-07T07:06:29;95301.41;;;7.21;100.00
4617;BME280;2321;42.704;23.384;2024-03-07T07:08:56;95304.06;;;7.21;100.00
4617;BME280;2321;42.704;23.384;2024-03-07T07:11:24;95298.09;;;7.18;100.00
4617;BME280;2321;42.704;23.384;2024-03-07T07:13:52;95289.53;;;7.16;100.00
4617;BME280;2321;42.704;23.384;2024-03-07T07:16:20;95293.16;;;7.15;100.00
4617;BME280;2321;42.704;23.384;2024-03-07T07:18:47;95279.75;;;7.17;100.00
4617;BME280;2321;42.704;23.384;2024-03-07T07:21:14;95278.53;;;7.28;100.00
4617;BME280;2321;42.704;23.384;2024-03-07T07:23:41;95267.72;;;7.38;100.00
4617;BME280;2321;42.704;23.384;2024-03-07T07:26:09;95264.06;;;7.39;100.00
4617;BME280;2321;42.704;23.384;2024-03-07T07:28:36;95259.78;;;7.38;100.00
4617;BME280;2321;42.704;23.384;2024-03-07T07:31:05;95271.19;;;7.38;100.00
4617;BME280;2321;42.704;23.384;2024-03-07T07:33:32;95271.47;;;7.44;100.00
4617;BME280;2321;42.704;23.384;2024-03-07T07:35:59;95274.63;;;7.47;100.00
4617;BME280;2321;42.704;23.384;2024-03-07T07:38:26;95276.38;;;7.55;100.00
4617;BME280;2321;42.704;23.384;2024-03-07T07:40:53;95273.03;;;7.61;100.00
4617;BME280;2321;42.704;23.384;2024-03-07T07:43:20;95271.69;;;7.66;100.00
4617;BME280;2321;42.704;23.384;2024-03-07T07:45:48;95275.25;;;7.73;100.00
4617;BME280;2321;42.704;23.384;2024-03-07T07:48:17;95272.25;;;7.76;100.00
4617;BME280;2321;42.704;23.384;2024-03-07T07:50:44;95281.69;;;7.79;100.00
4617;BME280;2321;42.704;23.384;2024-03-07T07:53:12;95276.78;;;7.91;100.00
4617;BME280;2321;42.704;23.384;2024-03-07T07:55:39;95263.97;;;7.94;100.00
4617;BME280;2321;42.704;23.384;2024-03-07T07:58:06;95269.84;;;7.90;100.00
4617;BME280;2321;42.704;23.384;2024-03-07T08:00:33;95279.25;;;7.92;100.00
4617;BME280;2321;42.704;23.384;2024-03-07T08:03:02;95275.25;;;7.97;100.00
4617;BME280;2321;42.704;23.384;2024-03-07T08:05:33;95270.94;;;7.95;100.00
4617;BME280;2321;42.704;23.384;2024-03-07T08:08:02;95270.13;;;7.95;100.00
4617;BME280;2321;42.704;23.384;2024-03-07T08:10:31;95252.94;;;7.91;100.00
4617;BME280;2321;42.704;23.384;2024-03-07T08:12:59;95267.41;;;8.03;100.00
4617;BME280;2321;42.704;23.384;2024-03-07T08:15:28;95272.53;;;8.05;100.00
4617;BME280;2321;42.704;23.384;2024-03-07T08:17:56;95278.91;;;7.95;100.00
4617;BME280;2321;42.704;23.384;2024-03-07T08:20:25;95294.44;;;7.99;100.00
4617;BME280;2321;42.704;23.384;2024-03-07T08:22:55;95295.44;;;7.98;100.00
4617;BME280;2321;42.704;23.384;2024-03-07T08:25:23;95295.56;;;8.04;100.00
4617;BME280;2321;42.704;23.384;2024-03-07T08:27:52;95304.16;;;8.06;100.00
4617;BME280;2321;42.704;23.384;2024-03-07T08:30:19;95296.59;;;8.03;100.00
4617;BME280;2321;42.704;23.384;2024-03-07T08:32:47;95306.28;;;8.11;100.00
4617;BME280;2321;42.704;23.384;2024-03-07T08:35:15;95310.88;;;8.17;100.00
4617;BME280;2321;42.704;23.384;2024-03-07T08:37:43;95311.88;;;8.16;100.00
4617;BME280;2321;42.704;23.384;2024-03-07T08:40:13;95321.00;;;8.14;100.00
4617;BME280;2321;42.704;23.384;2024-03-07T08:42:46;95324.97;;;8.18;100.00
4617;BME280;2321;42.704;23.384;2024-03-07T08:45:13;95329.44;;;8.17;100.00
4617;BME280;2321;42.704;23.384;2024-03-07T08:47:43;95338.50;;;8.23;100.00
4617;BME280;2321;42.704;23.384;2024-03-07T08:50:10;95328.38;;;8.27;100.00
4617;BME280;2321;42.704;23.384;2024-03-07T08:52:38;95330.06;;;8.20;100.00
4617;BME280;2321;42.704;23.384;2024-03-07T08:55:07;95341.16;;;8.23;100.00
4617;BME280;2321;42.704;23.384;2024-03-07T08:57:37;95348.22;;;8.31;100.00
4617;BME280;2321;42.704;23.384;2024-03-07T09:00:06;95344.56;;;8.32;100.00
4617;BME280;2321;42.704;23.384;2024-03-07T09:02:35;95348.69;;;8.35;100.00
4617;BME280;2321;42.704;23.384;2024-03-07T09:05:02;95337.78;;;8.30;100.00
4617;BME280;2321;42.704;23.384;2024-03-07T09:07:30;95338.97;;;8.27;100.00
4617;BME280;2321;42.704;23.384;2024-03-07T09:09:57;95334.66;;;8.26;100.00
4617;BME280;2321;42.704;23.384;2024-03-07T09:12:24;95335.50;;;8.26;100.00
4617;BME280;2321;42.704;23.384;2024-03-07T09:14:53;95336.13;;;8.28;100.00
4617;BME280;2321;42.704;23.384;2024-03-07T09:17:21;95331.56;;;8.37;100.00
4617;BME280;2321;42.704;23.384;2024-03-07T09:19:48;95333.88;;;8.41;100.00
4617;BME280;2321;42.704;23.384;2024-03-07T09:22:15;95334.88;;;8.39;100.00
4617;BME280;2321;42.704;23.384;2024-03-07T09:24:43;95335.81;;;8.47;100.00
4617;BME280;2321;42.704;23.384;2024-03-07T09:27:10;95338.94;;;8.50;100.00
4617;BME280;2321;42.704;23.384;2024-03-07T09:29:39;95342.03;;;8.54;100.00
4617;BME280;2321;42.704;23.384;2024-03-07T09:32:08;95348.13;;;8.63;100.00
4617;BME280;2321;42.704;23.384;2024-03-07T09:34:36;95345.38;;;8.71;100.00
4617;BME280;2321;42.704;23.384;2024-03-07T09:37:03;95347.16;;;8.79;100.00
4617;BME280;2321;42.704;23.384;2024-03-07T09:39:32;95344.19;;;8.89;100.00
4617;BME280;2321;42.704;23.384;2024-03-07T09:42:00;95345.31;;;8.95;100.00
4617;BME280;2321;42.704;23.384;2024-03-07T09:44:28;95342.84;;;8.93;100.00
4617;BME280;2321;42.704;23.384;2024-03-07T09:46:56;95344.59;;;9.01;100.00
4617;BME280;2321;42.704;23.384;2024-03-07T09:49:27;95337.72;;;9.07;100.00
4617;BME280;2321;42.704;23.384;2024-03-07T09:51:55;95334.97;;;9.15;100.00
4617;BME280;2321;42.704;23.384;2024-03-07T09:54:24;95340.91;;;9.18;100.00
4617;BME280;2321;42.704;23.384;2024-03-07T09:56:53;95343.06;;;9.29;100.00
4617;BME280;2321;42.704;23.384;2024-03-07T09:59:23;95333.84;;;9.25;100.00
4617;BME280;2321;42.704;23.384;2024-03-07T10:01:54;95344.81;;;9.37;100.00
4617;BME280;2321;42.704;23.384;2024-03-07T10:04:31;95352.06;;;9.43;100.00
4617;BME280;2321;42.704;23.384;2024-03-07T10:07:04;95348.03;;;9.47;100.00
4617;BME280;2321;42.704;23.384;2024-03-07T10:09:31;95337.19;;;9.49;100.00
4617;BME280;2321;42.704;23.384;2024-03-07T10:12:01;95335.25;;;9.58;100.00
4617;BME280;2321;42.704;23.384;2024-03-07T10:14:32;95325.31;;;9.67;100.00
4617;BME280;2321;42.704;23.384;2024-03-07T10:16:59;95322.50;;;9.68;100.00
4617;BME280;2321;42.704;23.384;2024-03-07T10:19:28;95311.47;;;9.72;100.00
4617;BME280;2321;42.704;23.384;2024-03-07T10:21:57;95310.28;;;9.74;100.00
4617;BME280;2321;42.704;23.384;2024-03-07T10:24:27;95306.56;;;9.90;100.00
4617;BME280;2321;42.704;23.384;2024-03-07T10:26:54;95309.13;;;10.06;100.00
4617;BME280;2321;42.704;23.384;2024-03-07T10:29:23;95304.16;;;10.24;100.00
4617;BME280;2321;42.704;23.384;2024-03-07T10:31:50;95306.03;;;10.31;100.00
4617;BME280;2321;42.704;23.384;2024-03-07T10:34:18;95303.84;;;10.34;100.00
4617;BME280;2321;42.704;23.384;2024-03-07T10:36:46;95302.81;;;10.35;100.00
4617;BME280;2321;42.704;23.384;2024-03-07T10:39:14;95299.34;;;10.35;100.00
4617;BME280;2321;42.704;23.384;2024-03-07T10:41:48;95310.88;;;10.42;100.00
4617;BME280;2321;42.704;23.384;2024-03-07T10:44:18;95298.94;;;10.38;100.00
4617;BME280;2321;42.704;23.384;2024-03-07T10:46:52;95304.06;;;10.40;100.00
4617;BME280;2321;42.704;23.384;2024-03-07T10:49:20;95299.56;;;10.40;100.00
4617;BME280;2321;42.704;23.384;2024-03-07T10:51:58;95299.63;;;10.47;100.00
4617;BME280;2321;42.704;23.384;2024-03-07T10:54:36;95305.94;;;10.46;100.00
4617;BME280;2321;42.704;23.384;2024-03-07T10:57:17;95297.34;;;10.44;100.00
4617;BME280;2321;42.704;23.384;2024-03-07T10:59:50;95305.53;;;10.42;100.00
4617;BME280;2321;42.704;23.384;2024-03-07T11:02:30;95300.41;;;10.41;100.00
4617;BME280;2321;42.704;23.384;2024-03-07T11:05:00;95304.72;;;10.42;100.00
4617;BME280;2321;42.704;23.384;2024-03-07T11:07:28;95293.69;;;10.45;100.00
4617;BME280;2321;42.704;23.384;2024-03-07T11:09:57;95288.34;;;10.45;100.00
4617;BME280;2321;42.704;23.384;2024-03-07T11:12:26;95283.66;;;10.47;100.00
4617;BME280;2321;42.704;23.384;2024-03-07T11:14:55;95288.94;;;10.40;100.00
4617;BME280;2321;42.704;23.384;2024-03-07T11:17:23;95291.75;;;10.32;100.00
4617;BME280;2321;42.704;23.384;2024-03-07T11:20:18;95291.06;;;10.23;100.00
4617;BME280;2321;42.704;23.384;2024-03-07T11:22:46;95287.41;;;10.24;100.00
4617;BME280;2321;42.704;23.384;2024-03-07T11:25:17;95286.56;;;10.23;100.00
4617;BME280;2321;42.704;23.384;2024-03-07T11:27:51;95285.91;;;10.21;100.00
4617;BME280;2321;42.704;23.384;2024-03-07T11:30:19;95275.28;;;10.21;100.00
4617;BME280;2321;42.704;23.384;2024-03-07T11:32:48;95287.41;;;10.24;100.00
4617;BME280;2321;42.704;23.384;2024-03-07T11:35:19;95282.06;;;10.24;100.00
4617;BME280;2321;42.704;23.384;2024-03-07T11:37:56;95291.88;;;10.23;100.00
4617;BME280;2321;42.704;23.384;2024-03-07T11:40:48;95270.34;;;10.18;100.00
4617;BME280;2321;42.704;23.384;2024-03-07T11:43:17;95259.59;;;10.05;100.00
4617;BME280;2321;42.704;23.384;2024-03-07T11:45:44;95263.13;;;10.12;100.00
4617;BME280;2321;42.704;23.384;2024-03-07T11:48:18;95273.53;;;10.07;100.00
4617;BME280;2321;42.704;23.384;2024-03-07T11:50:47;95275.75;;;10.03;100.00
4617;BME280;2321;42.704;23.384;2024-03-07T11:53:14;95265.09;;;10.03;100.00
4617;BME280;2321;42.704;23.384;2024-03-07T11:55:41;95278.22;;;10.05;100.00
4617;BME280;2321;42.704;23.384;2024-03-07T11:58:14;95266.69;;;9.97;100.00
4617;BME280;2321;42.704;23.384;2024-03-07T12:00:42;95259.25;;;9.86;100.00
4617;BME280;2321;42.704;23.384;2024-03-07T12:03:11;95267.28;;;9.93;100.00
4617;BME280;2321;42.704;23.384;2024-03-07T12:05:42;95263.03;;;9.98;100.00
4617;BME280;2321;42.704;23.384;2024-03-07T12:08:10;95258.97;;;10.02;100.00
4617;BME280;2321;42.704;23.384;2024-03-07T12:10:38;95261.19;;;9.99;100.00
4617;BME280;2321;42.704;23.384;2024-03-07T12:13:09;95260.38;;;9.98;100.00
4617;BME280;2321;42.704;23.384;2024-03-07T12:15:39;95263.03;;;9.98;100.00
4617;BME280;2321;42.704;23.384;2024-03-07T12:18:07;95263.22;;;9.97;100.00
4617;BME280;2321;42.704;23.384;2024-03-07T12:20:40;95261.13;;;9.92;100.00
4617;BME280;2321;42.704;23.384;2024-03-07T12:23:08;95266.00;;;9.88;100.00
4617;BME280;2321;42.704;23.384;2024-03-07T12:25:38;95263.94;;;9.84;100.00
4617;BME280;2321;42.704;23.384;2024-03-07T12:28:08;95260.13;;;9.71;100.00
4617;BME280;2321;42.704;23.384;2024-03-07T12:30:48;95264.00;;;9.68;100.00
4617;BME280;2321;42.704;23.384;2024-03-07T12:33:20;95265.84;;;9.68;100.00
4617;BME280;2321;42.704;23.384;2024-03-07T12:35:49;95254.75;;;9.64;100.00
4617;BME280;2321;42.704;23.384;2024-03-07T12:38:18;95253.91;;;9.64;100.00
4617;BME280;2321;42.704;23.384;2024-03-07T12:40:45;95261.66;;;9.58;100.00
4617;BME280;2321;42.704;23.384;2024-03-07T12:43:14;95264.31;;;9.58;100.00
4617;BME280;2321;42.704;23.384;2024-03-07T12:45:45;95271.66;;;9.56;100.00
4617;BME280;2321;42.704;23.384;2024-03-07T12:48:12;95269.28;;;9.46;100.00
4617;BME280;2321;42.704;23.384;2024-03-07T12:50:40;95264.53;;;9.42;100.00
4617;BME280;2321;42.704;23.384;2024-03-07T12:53:07;95260.78;;;9.36;100.00
4617;BME280;2321;42.704;23.384;2024-03-07T12:55:38;95258.97;;;9.36;100.00
4617;BME280;2321;42.704;23.384;2024-03-07T12:58:07;95260.03;;;9.42;100.00
4617;BME280;2321;42.704;23.384;2024-03-07T13:00:35;95252.06;;;9.42;100.00
4617;BME280;2321;42.704;23.384;2024-03-07T13:03:04;95246.59;;;9.44;100.00
4617;BME280;2321;42.704;23.384;2024-03-07T13:05:31;95242.16;;;9.51;100.00
4617;BME280;2321;42.704;23.384;2024-03-07T13:07:59;95245.63;;;9.52;100.00
4617;BME280;2321;42.704;23.384;2024-03-07T13:10:28;95235.59;;;9.47;100.00
4617;BME280;2321;42.704;23.384;2024-03-07T13:12:55;95246.00;;;9.48;100.00
4617;BME280;2321;42.704;23.384;2024-03-07T13:15:22;95245.84;;;9.50;100.00
4617;BME280;2321;42.704;23.384;2024-03-07T13:17:50;95248.28;;;9.52;100.00